sensor_id;sensor_type;location;lat;lon;timestamp;P1;durP1;ratioP1;P2;durP2;ratioP2
46006;SDS011;31738;50.188;8.524;2023-03-05T00:01:03;18.40;;;8.43;;
46006;SDS011;31738;50.188;8.524;2023-03-05T00:03:30;17.88;;;8.07;;
46006;SDS011;31738;50.188;8.524;2023-03-05T00:05:55;19.58;;;8.55;;
46006;SDS011;31738;50.188;8.524;2023-03-05T00:08:21;23.88;;;9.07;;
46006;SDS011;31738;50.188;8.524;2023-03-05T00:10:54;23.90;;;8.95;;
46006;SDS011;31738;50.188;8.524;2023-03-05T00:13:23;22.15;;;8.80;;
46006;SDS011;31738;50.188;8.524;2023-03-05T00:15:49;23.38;;;8.63;;
46006;SDS011;31738;50.188;8.524;2023-03-05T00:18:14;13.57;;;7.50;;
46006;SDS011;31738;50.188;8.524;2023-03-05T00:20:40;16.73;;;8.20;;
46006;SDS011;31738;50.188;8.524;2023-03-05T00:23:05;20.92;;;8.55;;
46006;SDS011;31738;50.188;8.524;2023-03-05T00:25:33;18.75;;;8.15;;
46006;SDS011;31738;50.188;8.524;2023-03-05T00:27:59;17.58;;;8.60;;
46006;SDS011;31738;50.188;8.524;2023-03-05T00:30:25;16.30;;;7.45;;
46006;SDS011;31738;50.188;8.524;2023-03-05T00:32:50;13.70;;;6.93;;
46006;SDS011;31738;50.188;8.524;2023-03-05T00:35:16;17.48;;;6.72;;
46006;SDS011;31738;50.188;8.524;2023-03-05T00:37:41;15.43;;;6.35;;
46006;SDS011;31738;50.188;8.524;2023-03-05T00:40:07;17.55;;;6.60;;
46006;SDS011;31738;50.188;8.524;2023-03-05T00:42:34;11.90;;;6.50;;
46006;SDS011;31738;50.188;8.524;2023-03-05T00:45:06;17.58;;;6.40;;
46006;SDS011;31738;50.188;8.524;2023-03-05T00:47:33;12.68;;;6.03;;
46006;SDS011;31738;50.188;8.524;2023-03-05T00:49:59;16.27;;;6.50;;
46006;SDS011;31738;50.188;8.524;2023-03-05T00:52:24;17.17;;;6.15;;
46006;SDS011;31738;50.188;8.524;2023-03-05T00:54:50;17.90;;;6.05;;
46006;SDS011;31738;50.188;8.524;2023-03-05T00:57:15;14.35;;;5.75;;
46006;SDS011;31738;50.188;8.524;2023-03-05T00:59:41;17.98;;;5.82;;
46006;SDS011;31738;50.188;8.524;2023-03-05T01:02:06;12.13;;;5.28;;
46006;SDS011;31738;50.188;8.524;2023-03-05T01:04:32;15.60;;;4.95;;
46006;SDS011;31738;50.188;8.524;2023-03-05T01:06:57;13.75;;;5.20;;
46006;SDS011;31738;50.188;8.524;2023-03-05T01:09:23;15.25;;;5.00;;
46006;SDS011;31738;50.188;8.524;2023-03-05T01:11:51;13.15;;;4.68;;
46006;SDS011;31738;50.188;8.524;2023-03-05T01:14:18;15.65;;;4.80;;
46006;SDS011;31738;50.188;8.524;2023-03-05T01:16:44;13.40;;;4.80;;
46006;SDS011;31738;50.188;8.524;2023-03-05T01:19:10;12.70;;;4.95;;
46006;SDS011;31738;50.188;8.524;2023-03-05T01:21:36;16.63;;;5.18;;
46006;SDS011;31738;50.188;8.524;2023-03-05T01:24:02;12.85;;;4.60;;
46006;SDS011;31738;50.188;8.524;2023-03-05T01:26:28;11.77;;;5.00;;
46006;SDS011;31738;50.188;8.524;2023-03-05T01:28:54;9.18;;;3.80;;
46006;SDS011;31738;50.188;8.524;2023-03-05T01:31:20;13.52;;;4.63;;
46006;SDS011;31738;50.188;8.524;2023-03-05T01:33:46;9.02;;;4.20;;
46006;SDS011;31738;50.188;8.524;2023-03-05T01:36:12;12.45;;;4.47;;
46006;SDS011;31738;50.188;8.524;2023-03-05T01:38:41;14.50;;;4.63;;
46006;SDS011;31738;50.188;8.524;2023-03-05T01:41:09;9.73;;;4.65;;
46006;SDS011;31738;50.188;8.524;2023-03-05T01:43:35;15.02;;;4.90;;
46006;SDS011;31738;50.188;8.524;2023-03-05T01:48:43;11.57;;;4.60;;
46006;SDS011;31738;50.188;8.524;2023-03-05T01:51:12;14.15;;;5.65;;
46006;SDS011;31738;50.188;8.524;2023-03-05T01:53:39;15.55;;;5.80;;
46006;SDS011;31738;50.188;8.524;2023-03-05T01:56:05;12.68;;;5.38;;
46006;SDS011;31738;50.188;8.524;2023-03-05T01:58:31;14.43;;;5.70;;
46006;SDS011;31738;50.188;8.524;2023-03-05T02:00:56;13.77;;;5.47;;
46006;SDS011;31738;50.188;8.524;2023-03-05T02:03:22;14.63;;;5.45;;
46006;SDS011;31738;50.188;8.524;2023-03-05T02:05:49;16.05;;;5.85;;
46006;SDS011;31738;50.188;8.524;2023-03-05T02:08:16;18.83;;;6.50;;
46006;SDS011;31738;50.188;8.524;2023-03-05T02:10:45;17.42;;;5.68;;
46006;SDS011;31738;50.188;8.524;2023-03-05T02:13:21;14.10;;;5.97;;
46006;SDS011;31738;50.188;8.524;2023-03-05T02:15:48;18.65;;;6.68;;
46006;SDS011;31738;50.188;8.524;2023-03-05T02:18:16;15.20;;;6.25;;
46006;SDS011;31738;50.188;8.524;2023-03-05T02:20:43;16.35;;;7.15;;
46006;SDS011;31738;50.188;8.524;2023-03-05T02:23:31;15.35;;;6.60;;
46006;SDS011;31738;50.188;8.524;2023-03-05T02:26:00;16.73;;;7.00;;
46006;SDS011;31738;50.188;8.524;2023-03-05T02:28:29;18.75;;;7.68;;
46006;SDS011;31738;50.188;8.524;2023-03-05T02:30:59;14.98;;;6.63;;
46006;SDS011;31738;50.188;8.524;2023-03-05T02:33:25;18.20;;;6.63;;
46006;SDS011;31738;50.188;8.524;2023-03-05T02:35:51;16.67;;;6.55;;
46006;SDS011;31738;50.188;8.524;2023-03-05T02:38:18;14.52;;;7.15;;
46006;SDS011;31738;50.188;8.524;2023-03-05T02:40:45;19.25;;;7.38;;
46006;SDS011;31738;50.188;8.524;2023-03-05T02:43:12;17.73;;;7.03;;
46006;SDS011;31738;50.188;8.524;2023-03-05T02:45:37;17.08;;;6.97;;
46006;SDS011;31738;50.188;8.524;2023-03-05T02:48:03;17.27;;;7.32;;
46006;SDS011;31738;50.188;8.524;2023-03-05T02:50:29;14.63;;;7.75;;
46006;SDS011;31738;50.188;8.524;2023-03-05T02:52:55;19.58;;;7.57;;
46006;SDS011;31738;50.188;8.524;2023-03-05T02:55:21;17.17;;;7.57;;
46006;SDS011;31738;50.188;8.524;2023-03-05T02:57:46;17.70;;;7.63;;
46006;SDS011;31738;50.188;8.524;2023-03-05T03:00:12;19.08;;;7.50;;
46006;SDS011;31738;50.188;8.524;2023-03-05T03:02:38;13.60;;;7.78;;
46006;SDS011;31738;50.188;8.524;2023-03-05T03:05:04;15.48;;;7.63;;
46006;SDS011;31738;50.188;8.524;2023-03-05T03:07:30;20.15;;;7.90;;
46006;SDS011;31738;50.188;8.524;2023-03-05T03:09:55;18.30;;;7.60;;
46006;SDS011;31738;50.188;8.524;2023-03-05T03:12:20;19.85;;;8.57;;
46006;SDS011;31738;50.188;8.524;2023-03-05T03:14:46;18.38;;;7.38;;
46006;SDS011;31738;50.188;8.524;2023-03-05T03:17:12;24.00;;;8.30;;
46006;SDS011;31738;50.188;8.524;2023-03-05T03:19:41;15.82;;;7.82;;
46006;SDS011;31738;50.188;8.524;2023-03-05T03:22:08;18.27;;;7.15;;
46006;SDS011;31738;50.188;8.524;2023-03-05T03:24:35;18.35;;;7.93;;
46006;SDS011;31738;50.188;8.524;2023-03-05T03:27:04;16.08;;;6.93;;
46006;SDS011;31738;50.188;8.524;2023-03-05T03:29:29;20.63;;;7.60;;
46006;SDS011;31738;50.188;8.524;2023-03-05T03:31:55;16.05;;;7.00;;
46006;SDS011;31738;50.188;8.524;2023-03-05T03:34:20;14.10;;;6.72;;
46006;SDS011;31738;50.188;8.524;2023-03-05T03:36:47;17.88;;;6.93;;
46006;SDS011;31738;50.188;8.524;2023-03-05T03:39:13;17.88;;;6.05;;
46006;SDS011;31738;50.188;8.524;2023-03-05T03:41:42;11.85;;;5.80;;
46006;SDS011;31738;50.188;8.524;2023-03-05T03:44:09;15.73;;;5.30;;
46006;SDS011;31738;50.188;8.524;2023-03-05T03:46:35;15.10;;;5.50;;
46006;SDS011;31738;50.188;8.524;2023-03-05T03:49:02;16.67;;;5.53;;
46006;SDS011;31738;50.188;8.524;2023-03-05T03:51:28;14.18;;;5.00;;
46006;SDS011;31738;50.188;8.524;2023-03-05T03:53:54;10.70;;;5.18;;
46006;SDS011;31738;50.188;8.524;2023-03-05T03:56:20;9.52;;;4.03;;
46006;SDS011;31738;50.188;8.524;2023-03-05T03:58:48;14.02;;;4.72;;
46006;SDS011;31738;50.188;8.524;2023-03-05T04:01:14;11.05;;;3.78;;
46006;SDS011;31738;50.188;8.524;2023-03-05T04:03:39;6.97;;;3.38;;
46006;SDS011;31738;50.188;8.524;2023-03-05T04:06:05;10.27;;;3.85;;
46006;SDS011;31738;50.188;8.524;2023-03-05T04:08:31;12.73;;;3.97;;
46006;SDS011;31738;50.188;8.524;2023-03-05T04:10:56;11.32;;;3.30;;
46006;SDS011;31738;50.188;8.524;2023-03-05T04:13:24;11.25;;;3.28;;
46006;SDS011;31738;50.188;8.524;2023-03-05T04:15:50;12.63;;;3.40;;
46006;SDS011;31738;50.188;8.524;2023-03-05T04:18:15;7.15;;;2.83;;
46006;SDS011;31738;50.188;8.524;2023-03-05T04:20:41;7.22;;;2.65;;
46006;SDS011;31738;50.188;8.524;2023-03-05T04:23:06;11.80;;;2.90;;
46006;SDS011;31738;50.188;8.524;2023-03-05T04:25:32;6.65;;;2.78;;
46006;SDS011;31738;50.188;8.524;2023-03-05T04:27:57;10.73;;;2.80;;
46006;SDS011;31738;50.188;8.524;2023-03-05T04:30:22;9.00;;;2.85;;
46006;SDS011;31738;50.188;8.524;2023-03-05T04:32:48;11.30;;;3.20;;
46006;SDS011;31738;50.188;8.524;2023-03-05T04:35:13;7.78;;;2.90;;
46006;SDS011;31738;50.188;8.524;2023-03-05T04:37:39;14.05;;;3.10;;
46006;SDS011;31738;50.188;8.524;2023-03-05T04:40:04;7.65;;;2.83;;
46006;SDS011;31738;50.188;8.524;2023-03-05T04:42:30;6.78;;;2.90;;
46006;SDS011;31738;50.188;8.524;2023-03-05T04:44:56;9.25;;;3.42;;
46006;SDS011;31738;50.188;8.524;2023-03-05T04:47:21;9.63;;;3.60;;
46006;SDS011;31738;50.188;8.524;2023-03-05T04:49:47;12.32;;;5.07;;
46006;SDS011;31738;50.188;8.524;2023-03-05T04:52:13;9.63;;;4.10;;
46006;SDS011;31738;50.188;8.524;2023-03-05T04:54:39;9.70;;;2.97;;
46006;SDS011;31738;50.188;8.524;2023-03-05T04:57:04;8.75;;;2.97;;
46006;SDS011;31738;50.188;8.524;2023-03-05T04:59:30;9.07;;;2.78;;
46006;SDS011;31738;50.188;8.524;2023-03-05T05:02:21;6.63;;;2.67;;
46006;SDS011;31738;50.188;8.524;2023-03-05T05:16:13;7.50;;;2.70;;
46006;SDS011;31738;50.188;8.524;2023-03-05T05:18:42;6.80;;;2.15;;
46006;SDS011;31738;50.188;8.524;2023-03-05T05:21:12;9.07;;;2.60;;
46006;SDS011;31738;50.188;8.524;2023-03-05T05:23:38;5.05;;;2.13;;
46006;SDS011;31738;50.188;8.524;2023-03-05T05:26:05;8.20;;;2.70;;
46006;SDS011;31738;50.188;8.524;2023-03-05T05:28:32;6.05;;;2.30;;
46006;SDS011;31738;50.188;8.524;2023-03-05T05:31:05;7.30;;;2.30;;
46006;SDS011;31738;50.188;8.524;2023-03-05T05:33:31;8.50;;;2.45;;
46006;SDS011;31738;50.188;8.524;2023-03-05T05:36:00;6.53;;;2.17;;
46006;SDS011;31738;50.188;8.524;2023-03-05T05:38:34;5.55;;;2.28;;
46006;SDS011;31738;50.188;8.524;2023-03-05T05:41:11;8.73;;;2.25;;
46006;SDS011;31738;50.188;8.524;2023-03-05T05:43:38;7.07;;;2.38;;
46006;SDS011;31738;50.188;8.524;2023-03-05T05:46:06;4.10;;;2.15;;
46006;SDS011;31738;50.188;8.524;2023-03-05T05:48:39;7.37;;;2.53;;
46006;SDS011;31738;50.188;8.524;2023-03-05T05:51:05;7.57;;;2.78;;
46006;SDS011;31738;50.188;8.524;2023-03-05T05:53:32;7.63;;;2.25;;
46006;SDS011;31738;50.188;8.524;2023-03-05T05:55:57;7.43;;;2.60;;
46006;SDS011;31738;50.188;8.524;2023-03-05T05:58:23;5.10;;;2.40;;
46006;SDS011;31738;50.188;8.524;2023-03-05T06:00:48;9.13;;;2.38;;
46006;SDS011;31738;50.188;8.524;2023-03-05T06:03:14;6.85;;;2.30;;
46006;SDS011;31738;50.188;8.524;2023-03-05T06:05:40;5.78;;;2.03;;
46006;SDS011;31738;50.188;8.524;2023-03-05T06:08:06;5.93;;;2.25;;
46006;SDS011;31738;50.188;8.524;2023-03-05T06:10:32;8.82;;;2.65;;
46006;SDS011;31738;50.188;8.524;2023-03-05T06:12:57;8.82;;;2.38;;
46006;SDS011;31738;50.188;8.524;2023-03-05T06:15:23;5.70;;;2.33;;
46006;SDS011;31738;50.188;8.524;2023-03-05T06:17:48;6.57;;;2.45;;
46006;SDS011;31738;50.188;8.524;2023-03-05T06:20:14;11.35;;;2.45;;
46006;SDS011;31738;50.188;8.524;2023-03-05T06:22:40;5.63;;;2.33;;
46006;SDS011;31738;50.188;8.524;2023-03-05T06:25:05;5.50;;;2.53;;
46006;SDS011;31738;50.188;8.524;2023-03-05T06:27:35;7.25;;;3.00;;
46006;SDS011;31738;50.188;8.524;2023-03-05T06:30:01;10.70;;;2.67;;
46006;SDS011;31738;50.188;8.524;2023-03-05T06:32:26;6.63;;;2.60;;
46006;SDS011;31738;50.188;8.524;2023-03-05T06:34:52;8.50;;;2.70;;
46006;SDS011;31738;50.188;8.524;2023-03-05T06:37:17;10.60;;;2.97;;
46006;SDS011;31738;50.188;8.524;2023-03-05T06:39:43;10.23;;;2.83;;
46006;SDS011;31738;50.188;8.524;2023-03-05T06:42:08;9.20;;;3.25;;
46006;SDS011;31738;50.188;8.524;2023-03-05T06:44:36;8.43;;;2.95;;
46006;SDS011;31738;50.188;8.524;2023-03-05T06:47:03;9.52;;;2.85;;
46006;SDS011;31738;50.188;8.524;2023-03-05T06:49:30;15.98;;;3.17;;
46006;SDS011;31738;50.188;8.524;2023-03-05T06:51:56;8.57;;;3.20;;
46006;SDS011;31738;50.188;8.524;2023-03-05T06:54:21;8.95;;;2.83;;
46006;SDS011;31738;50.188;8.524;2023-03-05T06:56:47;10.43;;;3.08;;
46006;SDS011;31738;50.188;8.524;2023-03-05T06:59:13;7.57;;;2.88;;
46006;SDS011;31738;50.188;8.524;2023-03-05T07:01:40;7.35;;;3.00;;
46006;SDS011;31738;50.188;8.524;2023-03-05T07:04:06;9.10;;;3.03;;
46006;SDS011;31738;50.188;8.524;2023-03-05T07:06:32;9.63;;;3.60;;
46006;SDS011;31738;50.188;8.524;2023-03-05T07:09:00;11.73;;;3.58;;
46006;SDS011;31738;50.188;8.524;2023-03-05T07:11:27;11.70;;;3.92;;
46006;SDS011;31738;50.188;8.524;2023-03-05T07:13:53;11.52;;;4.50;;
46006;SDS011;31738;50.188;8.524;2023-03-05T07:16:20;9.65;;;3.63;;
46006;SDS011;31738;50.188;8.524;2023-03-05T07:18:48;16.38;;;4.40;;
46006;SDS011;31738;50.188;8.524;2023-03-05T07:21:14;10.27;;;4.88;;
46006;SDS011;31738;50.188;8.524;2023-03-05T07:23:43;11.98;;;5.00;;
46006;SDS011;31738;50.188;8.524;2023-03-05T07:26:09;14.43;;;5.63;;
46006;SDS011;31738;50.188;8.524;2023-03-05T07:28:35;16.98;;;5.57;;
46006;SDS011;31738;50.188;8.524;2023-03-05T07:31:02;13.05;;;5.65;;
46006;SDS011;31738;50.188;8.524;2023-03-05T07:33:29;14.10;;;5.32;;
46006;SDS011;31738;50.188;8.524;2023-03-05T07:35:56;13.35;;;6.13;;
46006;SDS011;31738;50.188;8.524;2023-03-05T07:38:22;14.57;;;5.65;;
46006;SDS011;31738;50.188;8.524;2023-03-05T07:40:48;13.60;;;5.43;;
46006;SDS011;31738;50.188;8.524;2023-03-05T07:43:14;17.50;;;6.53;;
46006;SDS011;31738;50.188;8.524;2023-03-05T07:45:41;14.65;;;6.55;;
46006;SDS011;31738;50.188;8.524;2023-03-05T07:48:08;18.25;;;6.75;;
46006;SDS011;31738;50.188;8.524;2023-03-05T07:50:37;15.35;;;6.60;;
46006;SDS011;31738;50.188;8.524;2023-03-05T07:53:03;18.45;;;7.40;;
46006;SDS011;31738;50.188;8.524;2023-03-05T07:55:28;19.75;;;7.05;;
46006;SDS011;31738;50.188;8.524;2023-03-05T07:57:54;19.90;;;7.38;;
46006;SDS011;31738;50.188;8.524;2023-03-05T08:00:20;16.13;;;7.15;;
46006;SDS011;31738;50.188;8.524;2023-03-05T08:02:46;17.80;;;8.07;;
46006;SDS011;31738;50.188;8.524;2023-03-05T08:05:12;20.98;;;8.57;;
46006;SDS011;31738;50.188;8.524;2023-03-05T08:07:38;14.80;;;7.53;;
46006;SDS011;31738;50.188;8.524;2023-03-05T08:10:04;16.92;;;7.95;;
46006;SDS011;31738;50.188;8.524;2023-03-05T08:12:30;19.65;;;7.85;;
46006;SDS011;31738;50.188;8.524;2023-03-05T08:14:56;17.90;;;7.70;;
46006;SDS011;31738;50.188;8.524;2023-03-05T08:17:21;19.67;;;7.95;;
46006;SDS011;31738;50.188;8.524;2023-03-05T08:19:47;18.58;;;8.57;;
46006;SDS011;31738;50.188;8.524;2023-03-05T08:22:13;19.48;;;8.27;;
46006;SDS011;31738;50.188;8.524;2023-03-05T08:24:41;18.13;;;8.27;;
46006;SDS011;31738;50.188;8.524;2023-03-05T08:27:07;18.30;;;8.55;;
46006;SDS011;31738;50.188;8.524;2023-03-05T08:29:33;17.48;;;8.38;;
46006;SDS011;31738;50.188;8.524;2023-03-05T08:31:59;16.73;;;7.93;;
46006;SDS011;31738;50.188;8.524;2023-03-05T08:34:24;20.13;;;8.43;;
46006;SDS011;31738;50.188;8.524;2023-03-05T08:36:50;23.00;;;8.65;;
46006;SDS011;31738;50.188;8.524;2023-03-05T08:39:15;18.52;;;8.13;;
46006;SDS011;31738;50.188;8.524;2023-03-05T08:41:41;20.30;;;8.40;;
46006;SDS011;31738;50.188;8.524;2023-03-05T08:44:06;19.08;;;8.65;;
46006;SDS011;31738;50.188;8.524;2023-03-05T08:46:32;22.48;;;10.40;;
46006;SDS011;31738;50.188;8.524;2023-03-05T08:48:58;19.30;;;9.73;;
46006;SDS011;31738;50.188;8.524;2023-03-05T08:51:23;17.80;;;8.45;;
46006;SDS011;31738;50.188;8.524;2023-03-05T08:53:50;21.13;;;9.13;;
46006;SDS011;31738;50.188;8.524;2023-03-05T08:56:16;17.63;;;8.45;;
46006;SDS011;31738;50.188;8.524;2023-03-05T08:58:42;18.23;;;8.40;;
46006;SDS011;31738;50.188;8.524;2023-03-05T09:01:08;18.30;;;7.55;;
46006;SDS011;31738;50.188;8.524;2023-03-05T09:03:34;17.50;;;8.18;;
46006;SDS011;31738;50.188;8.524;2023-03-05T09:06:00;22.45;;;8.50;;
46006;SDS011;31738;50.188;8.524;2023-03-05T09:08:28;20.02;;;8.88;;
46006;SDS011;31738;50.188;8.524;2023-03-05T09:10:53;19.90;;;8.15;;
46006;SDS011;31738;50.188;8.524;2023-03-05T09:13:19;19.77;;;9.13;;
46006;SDS011;31738;50.188;8.524;2023-03-05T09:15:45;18.08;;;8.32;;
46006;SDS011;31738;50.188;8.524;2023-03-05T09:18:10;19.48;;;8.73;;
46006;SDS011;31738;50.188;8.524;2023-03-05T09:20:36;21.40;;;9.75;;
46006;SDS011;31738;50.188;8.524;2023-03-05T09:23:01;19.67;;;8.68;;
46006;SDS011;31738;50.188;8.524;2023-03-05T09:25:27;19.27;;;8.75;;
46006;SDS011;31738;50.188;8.524;2023-03-05T09:27:53;18.65;;;8.40;;
46006;SDS011;31738;50.188;8.524;2023-03-05T09:30:18;22.35;;;8.70;;
46006;SDS011;31738;50.188;8.524;2023-03-05T09:32:44;18.58;;;8.15;;
46006;SDS011;31738;50.188;8.524;2023-03-05T09:35:10;17.20;;;8.15;;
46006;SDS011;31738;50.188;8.524;2023-03-05T09:37:35;18.25;;;8.10;;
46006;SDS011;31738;50.188;8.524;2023-03-05T09:40:01;18.15;;;8.00;;
46006;SDS011;31738;50.188;8.524;2023-03-05T09:45:24;19.00;;;8.00;;
46006;SDS011;31738;50.188;8.524;2023-03-05T09:50:44;20.38;;;9.07;;
46006;SDS011;31738;50.188;8.524;2023-03-05T09:53:40;24.05;;;10.35;;
46006;SDS011;31738;50.188;8.524;2023-03-05T09:56:12;19.35;;;8.23;;
46006;SDS011;31738;50.188;8.524;2023-03-05T10:01:51;20.38;;;8.45;;
46006;SDS011;31738;50.188;8.524;2023-03-05T10:04:26;21.88;;;7.80;;
46006;SDS011;31738;50.188;8.524;2023-03-05T10:07:03;20.33;;;8.48;;
46006;SDS011;31738;50.188;8.524;2023-03-05T10:09:48;22.75;;;8.52;;
46006;SDS011;31738;50.188;8.524;2023-03-05T10:15:10;22.38;;;8.43;;
46006;SDS011;31738;50.188;8.524;2023-03-05T10:17:45;20.70;;;8.43;;
46006;SDS011;31738;50.188;8.524;2023-03-05T10:25:57;21.88;;;8.35;;
46006;SDS011;31738;50.188;8.524;2023-03-05T10:31:40;19.83;;;6.97;;
46006;SDS011;31738;50.188;8.524;2023-03-05T10:37:15;20.65;;;7.75;;
46006;SDS011;31738;50.188;8.524;2023-03-05T10:43:10;22.80;;;7.82;;
46006;SDS011;31738;50.188;8.524;2023-03-05T10:45:48;19.75;;;8.40;;
46006;SDS011;31738;50.188;8.524;2023-03-05T10:48:24;18.35;;;7.95;;
46006;SDS011;31738;50.188;8.524;2023-03-05T10:51:07;20.10;;;8.35;;
46006;SDS011;31738;50.188;8.524;2023-03-05T10:53:44;25.98;;;9.18;;
46006;SDS011;31738;50.188;8.524;2023-03-05T10:56:18;21.40;;;9.20;;
46006;SDS011;31738;50.188;8.524;2023-03-05T10:58:46;22.83;;;8.43;;
46006;SDS011;31738;50.188;8.524;2023-03-05T11:03:49;19.48;;;8.95;;
46006;SDS011;31738;50.188;8.524;2023-03-05T11:06:14;21.50;;;8.43;;
46006;SDS011;31738;50.188;8.524;2023-03-05T11:08:50;25.63;;;9.55;;
46006;SDS011;31738;50.188;8.524;2023-03-05T11:11:20;25.15;;;10.30;;
46006;SDS011;31738;50.188;8.524;2023-03-05T11:16:20;19.80;;;7.70;;
46006;SDS011;31738;50.188;8.524;2023-03-05T11:21:38;20.58;;;8.70;;
46006;SDS011;31738;50.188;8.524;2023-03-05T11:24:17;20.23;;;8.63;;
46006;SDS011;31738;50.188;8.524;2023-03-05T11:26:50;19.73;;;8.43;;
46006;SDS011;31738;50.188;8.524;2023-03-05T11:29:19;20.55;;;8.95;;
46006;SDS011;31738;50.188;8.524;2023-03-05T11:31:50;18.80;;;8.38;;
46006;SDS011;31738;50.188;8.524;2023-03-05T11:37:03;19.08;;;8.63;;
46006;SDS011;31738;50.188;8.524;2023-03-05T11:39:30;18.20;;;8.55;;
46006;SDS011;31738;50.188;8.524;2023-03-05T11:42:08;19.38;;;8.52;;
46006;SDS011;31738;50.188;8.524;2023-03-05T11:44:52;19.20;;;8.32;;
46006;SDS011;31738;50.188;8.524;2023-03-05T11:50:23;19.65;;;7.82;;
46006;SDS011;31738;50.188;8.524;2023-03-05T11:53:10;15.55;;;7.03;;
46006;SDS011;31738;50.188;8.524;2023-03-05T12:01:19;13.52;;;6.32;;
46006;SDS011;31738;50.188;8.524;2023-03-05T12:03:47;16.08;;;6.82;;
46006;SDS011;31738;50.188;8.524;2023-03-05T12:08:54;15.15;;;7.05;;
46006;SDS011;31738;50.188;8.524;2023-03-05T12:11:27;17.08;;;6.63;;
46006;SDS011;31738;50.188;8.524;2023-03-05T12:13:55;11.55;;;5.93;;
46006;SDS011;31738;50.188;8.524;2023-03-05T12:16:32;15.63;;;5.88;;
46006;SDS011;31738;50.188;8.524;2023-03-05T12:19:26;11.18;;;5.63;;
46006;SDS011;31738;50.188;8.524;2023-03-05T12:21:58;11.05;;;4.95;;
46006;SDS011;31738;50.188;8.524;2023-03-05T12:34:55;10.90;;;5.60;;
46006;SDS011;31738;50.188;8.524;2023-03-05T12:47:34;10.63;;;4.20;;
46006;SDS011;31738;50.188;8.524;2023-03-05T12:50:01;10.77;;;4.45;;
46006;SDS011;31738;50.188;8.524;2023-03-05T12:52:31;8.75;;;3.72;;
46006;SDS011;31738;50.188;8.524;2023-03-05T12:57:41;9.18;;;3.72;;
46006;SDS011;31738;50.188;8.524;2023-03-05T13:02:51;11.82;;;3.85;;
46006;SDS011;31738;50.188;8.524;2023-03-05T13:05:30;5.70;;;2.85;;
46006;SDS011;31738;50.188;8.524;2023-03-05T13:08:16;9.88;;;3.75;;
46006;SDS011;31738;50.188;8.524;2023-03-05T13:10:50;8.45;;;3.60;;
46006;SDS011;31738;50.188;8.524;2023-03-05T13:13:18;6.20;;;3.15;;
46006;SDS011;31738;50.188;8.524;2023-03-05T13:15:45;5.80;;;2.35;;
46006;SDS011;31738;50.188;8.524;2023-03-05T13:18:15;7.43;;;3.42;;
46006;SDS011;31738;50.188;8.524;2023-03-05T13:20:44;9.98;;;4.13;;
46006;SDS011;31738;50.188;8.524;2023-03-05T13:25:55;7.85;;;2.58;;
46006;SDS011;31738;50.188;8.524;2023-03-05T13:28:21;13.40;;;4.85;;
46006;SDS011;31738;50.188;8.524;2023-03-05T13:30:50;7.88;;;3.83;;
46006;SDS011;31738;50.188;8.524;2023-03-05T13:33:32;4.75;;;2.28;;
46006;SDS011;31738;50.188;8.524;2023-03-05T13:35:59;7.97;;;2.92;;
46006;SDS011;31738;50.188;8.524;2023-03-05T13:38:38;5.90;;;2.13;;
46006;SDS011;31738;50.188;8.524;2023-03-05T13:43:42;4.00;;;1.92;;
46006;SDS011;31738;50.188;8.524;2023-03-05T13:46:08;6.00;;;2.08;;
46006;SDS011;31738;50.188;8.524;2023-03-05T13:48:34;4.45;;;1.77;;
46006;SDS011;31738;50.188;8.524;2023-03-05T13:51:00;5.32;;;2.03;;
46006;SDS011;31738;50.188;8.524;2023-03-05T13:53:31;4.68;;;2.05;;
46006;SDS011;31738;50.188;8.524;2023-03-05T13:55:59;5.40;;;2.65;;
46006;SDS011;31738;50.188;8.524;2023-03-05T14:01:14;3.95;;;2.08;;
46006;SDS011;31738;50.188;8.524;2023-03-05T14:03:53;5.28;;;1.92;;
46006;SDS011;31738;50.188;8.524;2023-03-05T14:06:25;4.40;;;1.85;;
46006;SDS011;31738;50.188;8.524;2023-03-05T14:09:01;4.45;;;2.20;;
46006;SDS011;31738;50.188;8.524;2023-03-05T14:11:30;4.72;;;1.95;;
46006;SDS011;31738;50.188;8.524;2023-03-05T14:13:57;4.60;;;2.00;;
46006;SDS011;31738;50.188;8.524;2023-03-05T14:16:29;6.20;;;2.75;;
46006;SDS011;31738;50.188;8.524;2023-03-05T14:18:58;8.88;;;2.70;;
46006;SDS011;31738;50.188;8.524;2023-03-05T14:21:41;5.03;;;2.10;;
46006;SDS011;31738;50.188;8.524;2023-03-05T14:24:19;3.47;;;2.10;;
46006;SDS011;31738;50.188;8.524;2023-03-05T14:26:51;6.55;;;2.35;;
46006;SDS011;31738;50.188;8.524;2023-03-05T14:29:21;5.60;;;2.42;;
46006;SDS011;31738;50.188;8.524;2023-03-05T14:34:34;5.93;;;2.70;;
46006;SDS011;31738;50.188;8.524;2023-03-05T14:37:03;3.85;;;2.00;;
46006;SDS011;31738;50.188;8.524;2023-03-05T14:39:36;8.82;;;2.33;;
46006;SDS011;31738;50.188;8.524;2023-03-05T14:44:54;5.38;;;2.90;;
46006;SDS011;31738;50.188;8.524;2023-03-05T14:47:21;7.32;;;2.45;;
46006;SDS011;31738;50.188;8.524;2023-03-05T14:49:47;4.55;;;2.47;;
46006;SDS011;31738;50.188;8.524;2023-03-05T14:52:14;9.05;;;2.92;;
46006;SDS011;31738;50.188;8.524;2023-03-05T14:54:41;8.45;;;3.03;;
46006;SDS011;31738;50.188;8.524;2023-03-05T14:57:09;4.93;;;2.70;;
46006;SDS011;31738;50.188;8.524;2023-03-05T14:59:40;5.50;;;3.28;;
46006;SDS011;31738;50.188;8.524;2023-03-05T15:02:10;5.78;;;3.22;;
46006;SDS011;31738;50.188;8.524;2023-03-05T15:04:40;7.93;;;3.08;;
46006;SDS011;31738;50.188;8.524;2023-03-05T15:07:05;7.40;;;2.75;;
46006;SDS011;31738;50.188;8.524;2023-03-05T15:09:33;5.57;;;3.00;;
46006;SDS011;31738;50.188;8.524;2023-03-05T15:11:58;9.75;;;3.65;;
46006;SDS011;31738;50.188;8.524;2023-03-05T15:14:23;8.38;;;2.92;;
46006;SDS011;31738;50.188;8.524;2023-03-05T15:16:49;7.18;;;3.33;;
46006;SDS011;31738;50.188;8.524;2023-03-05T15:19:14;9.82;;;3.88;;
46006;SDS011;31738;50.188;8.524;2023-03-05T15:21:40;10.90;;;3.83;;
46006;SDS011;31738;50.188;8.524;2023-03-05T15:24:06;6.43;;;3.67;;
46006;SDS011;31738;50.188;8.524;2023-03-05T15:26:32;8.45;;;3.80;;
46006;SDS011;31738;50.188;8.524;2023-03-05T15:28:57;7.53;;;3.90;;
46006;SDS011;31738;50.188;8.524;2023-03-05T15:31:23;8.68;;;4.38;;
46006;SDS011;31738;50.188;8.524;2023-03-05T15:33:48;8.75;;;4.32;;
46006;SDS011;31738;50.188;8.524;2023-03-05T15:36:14;9.60;;;4.43;;
46006;SDS011;31738;50.188;8.524;2023-03-05T15:38:40;8.40;;;4.47;;
46006;SDS011;31738;50.188;8.524;2023-03-05T15:41:06;7.45;;;3.90;;
46006;SDS011;31738;50.188;8.524;2023-03-05T15:43:31;7.30;;;4.22;;
46006;SDS011;31738;50.188;8.524;2023-03-05T15:45:57;6.80;;;4.13;;
46006;SDS011;31738;50.188;8.524;2023-03-05T15:48:22;7.57;;;4.10;;
46006;SDS011;31738;50.188;8.524;2023-03-05T15:50:48;8.82;;;3.90;;
46006;SDS011;31738;50.188;8.524;2023-03-05T15:53:13;8.98;;;4.68;;
46006;SDS011;31738;50.188;8.524;2023-03-05T15:55:40;6.03;;;3.70;;
46006;SDS011;31738;50.188;8.524;2023-03-05T15:58:08;7.82;;;4.63;;
46006;SDS011;31738;50.188;8.524;2023-03-05T16:00:34;7.07;;;4.07;;
46006;SDS011;31738;50.188;8.524;2023-03-05T16:03:04;9.38;;;4.25;;
46006;SDS011;31738;50.188;8.524;2023-03-05T16:05:31;11.27;;;4.60;;
46006;SDS011;31738;50.188;8.524;2023-03-05T16:07:58;9.88;;;5.03;;
46006;SDS011;31738;50.188;8.524;2023-03-05T16:10:25;10.10;;;4.55;;
46006;SDS011;31738;50.188;8.524;2023-03-05T16:12:54;10.57;;;4.20;;
46006;SDS011;31738;50.188;8.524;2023-03-05T16:15:24;7.35;;;4.50;;
46006;SDS011;31738;50.188;8.524;2023-03-05T16:17:52;9.52;;;4.57;;
46006;SDS011;31738;50.188;8.524;2023-03-05T16:20:20;11.23;;;4.40;;
46006;SDS011;31738;50.188;8.524;2023-03-05T16:22:46;8.43;;;4.50;;
46006;SDS011;31738;50.188;8.524;2023-03-05T16:25:13;8.43;;;4.10;;